sensor_id;sensor_type;location;lat;lon;timestamp;P1;durP1;ratioP1;P2;durP2;ratioP2
64208;SDS011;50527;52.414;13.226;2023-06-01T00:00:55;1.02;;;0.40;;
64208;SDS011;50527;52.414;13.226;2023-06-01T00:03:21;1.17;;;0.43;;
64208;SDS011;50527;52.414;13.226;2023-06-01T00:05:47;1.08;;;0.50;;
64208;SDS011;50527;52.414;13.226;2023-06-01T00:08:12;2.15;;;0.50;;
64208;SDS011;50527;52.414;13.226;2023-06-01T00:10:38;3.17;;;0.60;;
64208;SDS011;50527;52.414;13.226;2023-06-01T00:13:03;3.53;;;0.50;;
64208;SDS011;50527;52.414;13.226;2023-06-01T00:15:29;1.10;;;0.40;;
64208;SDS011;50527;52.414;13.226;2023-06-01T00:17:54;1.23;;;0.55;;
64208;SDS011;50527;52.414;13.226;2023-06-01T00:20:21;2.40;;;0.38;;
64208;SDS011;50527;52.414;13.226;2023-06-01T00:22:48;1.00;;;0.40;;
64208;SDS011;50527;52.414;13.226;2023-06-01T00:25:14;0.85;;;0.32;;
64208;SDS011;50527;52.414;13.226;2023-06-01T00:27:40;2.03;;;0.50;;
64208;SDS011;50527;52.414;13.226;2023-06-01T00:30:06;0.88;;;0.20;;
64208;SDS011;50527;52.414;13.226;2023-06-01T00:32:32;2.03;;;0.40;;
64208;SDS011;50527;52.414;13.226;2023-06-01T00:34:57;0.80;;;0.30;;
64208;SDS011;50527;52.414;13.226;2023-06-01T00:37:23;3.65;;;0.50;;
64208;SDS011;50527;52.414;13.226;2023-06-01T00:39:48;1.75;;;0.50;;
64208;SDS011;50527;52.414;13.226;2023-06-01T00:42:14;1.25;;;0.40;;
64208;SDS011;50527;52.414;13.226;2023-06-01T00:44:39;3.55;;;0.75;;
64208;SDS011;50527;52.414;13.226;2023-06-01T00:47:05;1.88;;;0.40;;
64208;SDS011;50527;52.414;13.226;2023-06-01T00:49:31;2.22;;;0.40;;
64208;SDS011;50527;52.414;13.226;2023-06-01T00:51:56;3.70;;;0.57;;
64208;SDS011;50527;52.414;13.226;2023-06-01T00:54:22;5.43;;;0.98;;
64208;SDS011;50527;52.414;13.226;2023-06-01T00:56:47;1.52;;;0.35;;
64208;SDS011;50527;52.414;13.226;2023-06-01T00:59:13;1.92;;;0.40;;
64208;SDS011;50527;52.414;13.226;2023-06-01T01:01:38;2.53;;;0.95;;
64208;SDS011;50527;52.414;13.226;2023-06-01T01:04:07;3.53;;;0.70;;
64208;SDS011;50527;52.414;13.226;2023-06-01T01:06:47;1.65;;;0.45;;
64208;SDS011;50527;52.414;13.226;2023-06-01T01:09:23;4.70;;;0.68;;
64208;SDS011;50527;52.414;13.226;2023-06-01T01:11:57;3.25;;;0.47;;
64208;SDS011;50527;52.414;13.226;2023-06-01T01:14:35;1.20;;;0.50;;
64208;SDS011;50527;52.414;13.226;2023-06-01T01:25:20;2.67;;;0.50;;
64208;SDS011;50527;52.414;13.226;2023-06-01T01:30:40;2.28;;;0.55;;
64208;SDS011;50527;52.414;13.226;2023-06-01T01:33:07;3.00;;;0.75;;
64208;SDS011;50527;52.414;13.226;2023-06-01T01:35:34;1.65;;;0.52;;
64208;SDS011;50527;52.414;13.226;2023-06-01T01:38:01;1.77;;;0.50;;
64208;SDS011;50527;52.414;13.226;2023-06-01T01:40:26;1.75;;;0.50;;
64208;SDS011;50527;52.414;13.226;2023-06-01T01:42:52;1.63;;;0.57;;
64208;SDS011;50527;52.414;13.226;2023-06-01T01:45:18;0.95;;;0.40;;
64208;SDS011;50527;52.414;13.226;2023-06-01T01:47:49;2.60;;;0.50;;
64208;SDS011;50527;52.414;13.226;2023-06-01T01:50:32;1.25;;;0.50;;
64208;SDS011;50527;52.414;13.226;2023-06-01T01:53:06;1.98;;;0.60;;
64208;SDS011;50527;52.414;13.226;2023-06-01T01:55:35;2.40;;;0.70;;
64208;SDS011;50527;52.414;13.226;2023-06-01T01:58:01;3.97;;;0.57;;
64208;SDS011;50527;52.414;13.226;2023-06-01T02:00:28;1.98;;;0.40;;
64208;SDS011;50527;52.414;13.226;2023-06-01T02:02:55;5.35;;;0.70;;
64208;SDS011;50527;52.414;13.226;2023-06-01T02:05:20;1.10;;;0.50;;
64208;SDS011;50527;52.414;13.226;2023-06-01T02:07:46;2.67;;;0.70;;
64208;SDS011;50527;52.414;13.226;2023-06-01T02:10:11;0.77;;;0.30;;
64208;SDS011;50527;52.414;13.226;2023-06-01T02:12:37;2.45;;;0.60;;
64208;SDS011;50527;52.414;13.226;2023-06-01T02:15:02;2.10;;;0.50;;
64208;SDS011;50527;52.414;13.226;2023-06-01T02:17:29;2.20;;;0.50;;
64208;SDS011;50527;52.414;13.226;2023-06-01T02:19:54;2.65;;;0.70;;
64208;SDS011;50527;52.414;13.226;2023-06-01T02:22:20;4.85;;;0.80;;
64208;SDS011;50527;52.414;13.226;2023-06-01T02:24:45;7.18;;;1.08;;
64208;SDS011;50527;52.414;13.226;2023-06-01T02:27:12;3.08;;;0.80;;
64208;SDS011;50527;52.414;13.226;2023-06-01T02:29:37;4.15;;;0.90;;
64208;SDS011;50527;52.414;13.226;2023-06-01T02:32:03;3.30;;;1.10;;
64208;SDS011;50527;52.414;13.226;2023-06-01T02:34:29;4.45;;;0.80;;
64208;SDS011;50527;52.414;13.226;2023-06-01T02:36:54;3.92;;;0.88;;
64208;SDS011;50527;52.414;13.226;2023-06-01T02:39:20;2.97;;;0.98;;
64208;SDS011;50527;52.414;13.226;2023-06-01T02:41:46;4.05;;;0.70;;
64208;SDS011;50527;52.414;13.226;2023-06-01T02:44:12;3.88;;;0.90;;
64208;SDS011;50527;52.414;13.226;2023-06-01T02:46:37;3.38;;;1.00;;
64208;SDS011;50527;52.414;13.226;2023-06-01T02:49:03;1.30;;;0.50;;
64208;SDS011;50527;52.414;13.226;2023-06-01T02:51:29;1.70;;;1.00;;
64208;SDS011;50527;52.414;13.226;2023-06-01T02:53:56;5.60;;;1.10;;
64208;SDS011;50527;52.414;13.226;2023-06-01T02:56:21;2.70;;;0.90;;
64208;SDS011;50527;52.414;13.226;2023-06-01T02:58:47;7.95;;;1.00;;
64208;SDS011;50527;52.414;13.226;2023-06-01T03:01:13;5.13;;;0.98;;
64208;SDS011;50527;52.414;13.226;2023-06-01T03:03:39;4.22;;;1.20;;
64208;SDS011;50527;52.414;13.226;2023-06-01T03:06:05;2.08;;;0.80;;
64208;SDS011;50527;52.414;13.226;2023-06-01T03:08:31;7.35;;;1.35;;
64208;SDS011;50527;52.414;13.226;2023-06-01T03:10:57;4.47;;;1.20;;
64208;SDS011;50527;52.414;13.226;2023-06-01T03:13:23;2.92;;;1.02;;
64208;SDS011;50527;52.414;13.226;2023-06-01T03:15:48;3.20;;;0.93;;
64208;SDS011;50527;52.414;13.226;2023-06-01T03:18:15;4.95;;;1.20;;
64208;SDS011;50527;52.414;13.226;2023-06-01T03:20:40;5.43;;;1.25;;
64208;SDS011;50527;52.414;13.226;2023-06-01T03:23:06;8.75;;;1.35;;
64208;SDS011;50527;52.414;13.226;2023-06-01T03:25:31;4.68;;;1.20;;
64208;SDS011;50527;52.414;13.226;2023-06-01T03:27:58;8.55;;;1.40;;
64208;SDS011;50527;52.414;13.226;2023-06-01T03:30:23;2.55;;;1.00;;
64208;SDS011;50527;52.414;13.226;2023-06-01T03:32:49;6.03;;;1.20;;
64208;SDS011;50527;52.414;13.226;2023-06-01T03:35:15;4.25;;;1.20;;
64208;SDS011;50527;52.414;13.226;2023-06-01T03:37:40;4.40;;;1.38;;
64208;SDS011;50527;52.414;13.226;2023-06-01T03:40:07;5.05;;;1.23;;
64208;SDS011;50527;52.414;13.226;2023-06-01T03:42:43;4.07;;;1.58;;
64208;SDS011;50527;52.414;13.226;2023-06-01T03:48:32;6.13;;;1.45;;
64208;SDS011;50527;52.414;13.226;2023-06-01T03:54:20;4.68;;;1.42;;
64208;SDS011;50527;52.414;13.226;2023-06-01T03:56:46;5.07;;;1.58;;
64208;SDS011;50527;52.414;13.226;2023-06-01T03:59:11;8.52;;;1.50;;
64208;SDS011;50527;52.414;13.226;2023-06-01T04:01:37;4.80;;;1.80;;
64208;SDS011;50527;52.414;13.226;2023-06-01T04:04:05;9.57;;;2.03;;
64208;SDS011;50527;52.414;13.226;2023-06-01T04:06:33;8.60;;;2.05;;
64208;SDS011;50527;52.414;13.226;2023-06-01T04:09:00;6.00;;;1.40;;
64208;SDS011;50527;52.414;13.226;2023-06-01T04:11:31;9.10;;;2.10;;
64208;SDS011;50527;52.414;13.226;2023-06-01T04:13:57;8.05;;;1.80;;
64208;SDS011;50527;52.414;13.226;2023-06-01T04:16:22;6.50;;;2.10;;
64208;SDS011;50527;52.414;13.226;2023-06-01T04:22:10;6.95;;;2.08;;
64208;SDS011;50527;52.414;13.226;2023-06-01T04:24:35;6.35;;;2.13;;
64208;SDS011;50527;52.414;13.226;2023-06-01T04:27:01;5.32;;;2.08;;
64208;SDS011;50527;52.414;13.226;2023-06-01T04:29:27;6.63;;;2.20;;
64208;SDS011;50527;52.414;13.226;2023-06-01T04:31:53;6.95;;;1.83;;
64208;SDS011;50527;52.414;13.226;2023-06-01T04:34:19;6.63;;;1.92;;
64208;SDS011;50527;52.414;13.226;2023-06-01T04:36:45;8.20;;;1.92;;
64208;SDS011;50527;52.414;13.226;2023-06-01T04:39:11;6.00;;;2.10;;
64208;SDS011;50527;52.414;13.226;2023-06-01T04:41:37;7.55;;;1.70;;
64208;SDS011;50527;52.414;13.226;2023-06-01T04:44:03;9.60;;;2.13;;
64208;SDS011;50527;52.414;13.226;2023-06-01T04:46:31;8.68;;;2.40;;
64208;SDS011;50527;52.414;13.226;2023-06-01T04:48:56;7.68;;;2.00;;
64208;SDS011;50527;52.414;13.226;2023-06-01T04:51:23;9.07;;;2.00;;
64208;SDS011;50527;52.414;13.226;2023-06-01T04:53:49;6.03;;;1.90;;
64208;SDS011;50527;52.414;13.226;2023-06-01T04:56:17;11.07;;;2.28;;
64208;SDS011;50527;52.414;13.226;2023-06-01T04:58:43;6.97;;;2.03;;
64208;SDS011;50527;52.414;13.226;2023-06-01T05:01:09;4.70;;;1.85;;
64208;SDS011;50527;52.414;13.226;2023-06-01T05:03:38;6.95;;;1.80;;
64208;SDS011;50527;52.414;13.226;2023-06-01T05:06:04;5.68;;;1.55;;
64208;SDS011;50527;52.414;13.226;2023-06-01T05:08:29;9.52;;;2.08;;
64208;SDS011;50527;52.414;13.226;2023-06-01T05:10:56;4.68;;;1.80;;
64208;SDS011;50527;52.414;13.226;2023-06-01T05:13:22;5.45;;;1.67;;
64208;SDS011;50527;52.414;13.226;2023-06-01T05:15:47;5.60;;;1.98;;
64208;SDS011;50527;52.414;13.226;2023-06-01T05:18:13;6.15;;;1.73;;
64208;SDS011;50527;52.414;13.226;2023-06-01T05:20:38;6.50;;;1.77;;
64208;SDS011;50527;52.414;13.226;2023-06-01T05:23:03;8.20;;;1.83;;
64208;SDS011;50527;52.414;13.226;2023-06-01T05:25:29;5.32;;;1.60;;
64208;SDS011;50527;52.414;13.226;2023-06-01T05:27:54;6.25;;;1.63;;
64208;SDS011;50527;52.414;13.226;2023-06-01T05:30:20;4.47;;;1.80;;
64208;SDS011;50527;52.414;13.226;2023-06-01T05:32:45;6.38;;;1.90;;
64208;SDS011;50527;52.414;13.226;2023-06-01T05:35:11;8.18;;;1.80;;
64208;SDS011;50527;52.414;13.226;2023-06-01T05:37:36;5.72;;;1.52;;
64208;SDS011;50527;52.414;13.226;2023-06-01T05:40:02;5.35;;;1.60;;
64208;SDS011;50527;52.414;13.226;2023-06-01T05:42:29;7.65;;;1.58;;
64208;SDS011;50527;52.414;13.226;2023-06-01T05:44:54;6.80;;;1.75;;
64208;SDS011;50527;52.414;13.226;2023-06-01T05:47:20;3.17;;;1.40;;
64208;SDS011;50527;52.414;13.226;2023-06-01T05:49:45;7.95;;;1.25;;
64208;SDS011;50527;52.414;13.226;2023-06-01T05:52:11;10.00;;;1.70;;
64208;SDS011;50527;52.414;13.226;2023-06-01T05:54:38;8.77;;;1.38;;
64208;SDS011;50527;52.414;13.226;2023-06-01T05:57:04;7.30;;;1.55;;
64208;SDS011;50527;52.414;13.226;2023-06-01T05:59:30;11.63;;;1.55;;
64208;SDS011;50527;52.414;13.226;2023-06-01T06:01:56;3.38;;;1.15;;
64208;SDS011;50527;52.414;13.226;2023-06-01T06:04:21;3.45;;;1.17;;
64208;SDS011;50527;52.414;13.226;2023-06-01T06:06:47;5.80;;;1.20;;
64208;SDS011;50527;52.414;13.226;2023-06-01T06:09:13;5.40;;;1.45;;
64208;SDS011;50527;52.414;13.226;2023-06-01T06:15:01;5.63;;;1.10;;
64208;SDS011;50527;52.414;13.226;2023-06-01T06:17:29;6.50;;;1.30;;
64208;SDS011;50527;52.414;13.226;2023-06-01T06:19:54;5.05;;;1.20;;
64208;SDS011;50527;52.414;13.226;2023-06-01T06:22:19;5.25;;;1.10;;
64208;SDS011;50527;52.414;13.226;2023-06-01T06:24:45;6.28;;;1.23;;
64208;SDS011;50527;52.414;13.226;2023-06-01T06:27:12;6.22;;;1.33;;
64208;SDS011;50527;52.414;13.226;2023-06-01T06:29:37;10.85;;;1.85;;
64208;SDS011;50527;52.414;13.226;2023-06-01T06:32:03;4.85;;;1.05;;
64208;SDS011;50527;52.414;13.226;2023-06-01T06:37:51;2.78;;;0.90;;
64208;SDS011;50527;52.414;13.226;2023-06-01T06:40:16;5.35;;;1.25;;
64208;SDS011;50527;52.414;13.226;2023-06-01T06:42:43;3.92;;;1.40;;
64208;SDS011;50527;52.414;13.226;2023-06-01T06:45:09;4.75;;;1.23;;
64208;SDS011;50527;52.414;13.226;2023-06-01T06:47:36;7.15;;;1.30;;
64208;SDS011;50527;52.414;13.226;2023-06-01T06:50:01;6.55;;;1.48;;
64208;SDS011;50527;52.414;13.226;2023-06-01T06:59:05;9.43;;;1.30;;
64208;SDS011;50527;52.414;13.226;2023-06-01T07:07:55;5.22;;;1.23;;
64208;SDS011;50527;52.414;13.226;2023-06-01T07:10:21;7.88;;;1.17;;
64208;SDS011;50527;52.414;13.226;2023-06-01T07:12:46;9.13;;;1.50;;
64208;SDS011;50527;52.414;13.226;2023-06-01T07:15:12;5.00;;;1.30;;
64208;SDS011;50527;52.414;13.226;2023-06-01T07:17:38;7.47;;;1.23;;
64208;SDS011;50527;52.414;13.226;2023-06-01T07:20:03;2.42;;;0.65;;
64208;SDS011;50527;52.414;13.226;2023-06-01T07:22:31;2.95;;;1.20;;
64208;SDS011;50527;52.414;13.226;2023-06-01T07:24:57;2.72;;;1.00;;
64208;SDS011;50527;52.414;13.226;2023-06-01T07:27:22;6.18;;;1.35;;
64208;SDS011;50527;52.414;13.226;2023-06-01T07:29:48;5.05;;;1.15;;
64208;SDS011;50527;52.414;13.226;2023-06-01T07:32:19;7.35;;;1.10;;
64208;SDS011;50527;52.414;13.226;2023-06-01T07:34:48;2.40;;;1.00;;
64208;SDS011;50527;52.414;13.226;2023-06-01T07:37:14;3.83;;;0.90;;
64208;SDS011;50527;52.414;13.226;2023-06-01T07:39:40;4.88;;;1.42;;
64208;SDS011;50527;52.414;13.226;2023-06-01T07:42:06;3.42;;;1.13;;
64208;SDS011;50527;52.414;13.226;2023-06-01T07:44:32;5.75;;;1.30;;
64208;SDS011;50527;52.414;13.226;2023-06-01T07:46:58;3.90;;;1.20;;
64208;SDS011;50527;52.414;13.226;2023-06-01T07:49:23;5.32;;;1.42;;
64208;SDS011;50527;52.414;13.226;2023-06-01T07:51:49;8.20;;;1.25;;
64208;SDS011;50527;52.414;13.226;2023-06-01T07:54:16;3.22;;;1.20;;
64208;SDS011;50527;52.414;13.226;2023-06-01T07:56:42;5.93;;;1.27;;
64208;SDS011;50527;52.414;13.226;2023-06-01T07:59:08;5.55;;;1.52;;
64208;SDS011;50527;52.414;13.226;2023-06-01T08:04:55;4.00;;;1.17;;
64208;SDS011;50527;52.414;13.226;2023-06-01T08:07:22;4.97;;;1.20;;
64208;SDS011;50527;52.414;13.226;2023-06-01T08:09:47;5.63;;;1.42;;
64208;SDS011;50527;52.414;13.226;2023-06-01T08:12:14;7.95;;;1.48;;
64208;SDS011;50527;52.414;13.226;2023-06-01T08:14:39;10.35;;;1.50;;
64208;SDS011;50527;52.414;13.226;2023-06-01T08:17:06;5.45;;;1.48;;
64208;SDS011;50527;52.414;13.226;2023-06-01T08:19:32;5.95;;;1.27;;
64208;SDS011;50527;52.414;13.226;2023-06-01T08:21:58;3.25;;;1.38;;
64208;SDS011;50527;52.414;13.226;2023-06-01T08:24:24;11.23;;;2.53;;
64208;SDS011;50527;52.414;13.226;2023-06-01T08:26:50;4.10;;;1.10;;
64208;SDS011;50527;52.414;13.226;2023-06-01T08:29:19;6.35;;;1.50;;
64208;SDS011;50527;52.414;13.226;2023-06-01T08:31:45;5.03;;;1.40;;
64208;SDS011;50527;52.414;13.226;2023-06-01T08:34:10;3.45;;;1.08;;
64208;SDS011;50527;52.414;13.226;2023-06-01T08:36:36;3.85;;;1.35;;
64208;SDS011;50527;52.414;13.226;2023-06-01T08:39:06;4.45;;;1.35;;
64208;SDS011;50527;52.414;13.226;2023-06-01T08:41:50;3.60;;;1.17;;
64208;SDS011;50527;52.414;13.226;2023-06-01T08:44:28;3.90;;;1.35;;
64208;SDS011;50527;52.414;13.226;2023-06-01T08:46:58;9.45;;;1.67;;
64208;SDS011;50527;52.414;13.226;2023-06-01T08:49:24;5.53;;;1.35;;
64208;SDS011;50527;52.414;13.226;2023-06-01T08:51:51;8.43;;;1.70;;
64208;SDS011;50527;52.414;13.226;2023-06-01T08:54:20;4.90;;;1.55;;
64208;SDS011;50527;52.414;13.226;2023-06-01T08:56:46;5.22;;;1.40;;
64208;SDS011;50527;52.414;13.226;2023-06-01T08:59:11;6.15;;;1.70;;
64208;SDS011;50527;52.414;13.226;2023-06-01T09:01:38;7.22;;;2.08;;
64208;SDS011;50527;52.414;13.226;2023-06-01T09:04:04;6.53;;;1.95;;
64208;SDS011;50527;52.414;13.226;2023-06-01T09:06:30;6.35;;;1.80;;
64208;SDS011;50527;52.414;13.226;2023-06-01T09:08:55;3.72;;;1.90;;
64208;SDS011;50527;52.414;13.226;2023-06-01T09:11:21;5.25;;;1.95;;
64208;SDS011;50527;52.414;13.226;2023-06-01T09:13:47;7.75;;;1.90;;
64208;SDS011;50527;52.414;13.226;2023-06-01T09:16:13;12.73;;;2.85;;
64208;SDS011;50527;52.414;13.226;2023-06-01T09:18:53;4.93;;;1.80;;
64208;SDS011;50527;52.414;13.226;2023-06-01T09:21:20;7.20;;;2.10;;
64208;SDS011;50527;52.414;13.226;2023-06-01T09:23:45;5.72;;;2.10;;
64208;SDS011;50527;52.414;13.226;2023-06-01T09:26:12;7.95;;;2.20;;
64208;SDS011;50527;52.414;13.226;2023-06-01T09:28:55;5.70;;;1.88;;
64208;SDS011;50527;52.414;13.226;2023-06-01T09:31:46;6.80;;;2.10;;
64208;SDS011;50527;52.414;13.226;2023-06-01T09:34:11;6.68;;;2.47;;
64208;SDS011;50527;52.414;13.226;2023-06-01T09:36:43;5.18;;;2.60;;
64208;SDS011;50527;52.414;13.226;2023-06-01T09:39:13;6.60;;;2.28;;
64208;SDS011;50527;52.414;13.226;2023-06-01T09:41:47;5.47;;;2.10;;
64208;SDS011;50527;52.414;13.226;2023-06-01T09:44:21;6.88;;;2.40;;
64208;SDS011;50527;52.414;13.226;2023-06-01T09:46:57;6.60;;;2.50;;
64208;SDS011;50527;52.414;13.226;2023-06-01T09:49:29;5.93;;;2.03;;
64208;SDS011;50527;52.414;13.226;2023-06-01T09:54:35;7.57;;;2.17;;
64208;SDS011;50527;52.414;13.226;2023-06-01T09:57:06;6.20;;;2.22;;
64208;SDS011;50527;52.414;13.226;2023-06-01T09:59:37;4.45;;;2.30;;
64208;SDS011;50527;52.414;13.226;2023-06-01T10:02:05;5.43;;;1.98;;
64208;SDS011;50527;52.414;13.226;2023-06-01T10:04:36;5.20;;;2.03;;
64208;SDS011;50527;52.414;13.226;2023-06-01T10:07:05;5.30;;;2.00;;
64208;SDS011;50527;52.414;13.226;2023-06-01T10:09:32;4.47;;;1.75;;
64208;SDS011;50527;52.414;13.226;2023-06-01T10:12:00;3.83;;;1.92;;
64208;SDS011;50527;52.414;13.226;2023-06-01T10:14:26;6.80;;;1.98;;
64208;SDS011;50527;52.414;13.226;2023-06-01T10:16:52;8.52;;;1.92;;
64208;SDS011;50527;52.414;13.226;2023-06-01T10:19:19;3.92;;;1.60;;
64208;SDS011;50527;52.414;13.226;2023-06-01T10:21:45;5.22;;;1.70;;
64208;SDS011;50527;52.414;13.226;2023-06-01T10:24:16;4.88;;;2.00;;
64208;SDS011;50527;52.414;13.226;2023-06-01T10:29:30;8.73;;;2.30;;
64208;SDS011;50527;52.414;13.226;2023-06-01T10:31:56;5.15;;;2.28;;
64208;SDS011;50527;52.414;13.226;2023-06-01T10:37:18;6.80;;;1.90;;
64208;SDS011;50527;52.414;13.226;2023-06-01T10:39:43;4.53;;;1.80;;
64208;SDS011;50527;52.414;13.226;2023-06-01T10:47:03;5.57;;;1.75;;
64208;SDS011;50527;52.414;13.226;2023-06-01T10:52:23;3.80;;;1.33;;
64208;SDS011;50527;52.414;13.226;2023-06-01T10:57:36;4.95;;;1.50;;
64208;SDS011;50527;52.414;13.226;2023-06-01T11:00:21;5.65;;;1.40;;
64208;SDS011;50527;52.414;13.226;2023-06-01T11:03:01;3.37;;;1.27;;
64208;SDS011;50527;52.414;13.226;2023-06-01T11:05:35;4.85;;;1.30;;
64208;SDS011;50527;52.414;13.226;2023-06-01T11:08:01;7.78;;;1.35;;
64208;SDS011;50527;52.414;13.226;2023-06-01T11:13:31;5.63;;;1.20;;
64208;SDS011;50527;52.414;13.226;2023-06-01T11:18:44;5.13;;;1.30;;
64208;SDS011;50527;52.414;13.226;2023-06-01T11:21:24;5.78;;;1.15;;
64208;SDS011;50527;52.414;13.226;2023-06-01T11:23:53;5.50;;;1.05;;
64208;SDS011;50527;52.414;13.226;2023-06-01T11:26:24;4.82;;;1.30;;
64208;SDS011;50527;52.414;13.226;2023-06-01T11:29:02;5.57;;;1.17;;
64208;SDS011;50527;52.414;13.226;2023-06-01T11:31:45;10.93;;;1.98;;
64208;SDS011;50527;52.414;13.226;2023-06-01T11:34:18;4.68;;;1.30;;
64208;SDS011;50527;52.414;13.226;2023-06-01T11:36:51;3.03;;;1.15;;
64208;SDS011;50527;52.414;13.226;2023-06-01T11:39:20;4.28;;;1.35;;
64208;SDS011;50527;52.414;13.226;2023-06-01T11:41:48;6.55;;;1.20;;
64208;SDS011;50527;52.414;13.226;2023-06-01T11:44:15;5.55;;;1.30;;
64208;SDS011;50527;52.414;13.226;2023-06-01T11:46:50;4.18;;;1.10;;
64208;SDS011;50527;52.414;13.226;2023-06-01T11:49:20;4.72;;;1.20;;
64208;SDS011;50527;52.414;13.226;2023-06-01T11:51:46;3.53;;;0.93;;
64208;SDS011;50527;52.414;13.226;2023-06-01T11:54:12;6.45;;;1.20;;
64208;SDS011;50527;52.414;13.226;2023-06-01T11:56:38;6.07;;;1.20;;
64208;SDS011;50527;52.414;13.226;2023-06-01T11:59:08;3.58;;;1.10;;
64208;SDS011;50527;52.414;13.226;2023-06-01T12:01:35;3.60;;;0.98;;
64208;SDS011;50527;52.414;13.226;2023-06-01T12:04:04;3.78;;;1.08;;
64208;SDS011;50527;52.414;13.226;2023-06-01T12:06:30;6.80;;;1.17;;
64208;SDS011;50527;52.414;13.226;2023-06-01T12:08:56;10.13;;;1.85;;
64208;SDS011;50527;52.414;13.226;2023-06-01T12:11:23;3.42;;;1.20;;
64208;SDS011;50527;52.414;13.226;2023-06-01T12:13:53;10.82;;;1.60;;
64208;SDS011;50527;52.414;13.226;2023-06-01T12:16:20;3.38;;;0.88;;
64208;SDS011;50527;52.414;13.226;2023-06-01T12:18:46;4.78;;;1.27;;
64208;SDS011;50527;52.414;13.226;2023-06-01T12:21:12;3.30;;;0.95;;
64208;SDS011;50527;52.414;13.226;2023-06-01T12:23:39;5.05;;;1.10;;
64208;SDS011;50527;52.414;13.226;2023-06-01T12:26:04;3.90;;;1.15;;
64208;SDS011;50527;52.414;13.226;2023-06-01T12:28:46;5.40;;;1.15;;
64208;SDS011;50527;52.414;13.226;2023-06-01T12:31:17;3.97;;;1.15;;
64208;SDS011;50527;52.414;13.226;2023-06-01T12:33:43;3.45;;;1.00;;
64208;SDS011;50527;52.414;13.226;2023-06-01T12:36:10;3.83;;;0.95;;
64208;SDS011;50527;52.414;13.226;2023-06-01T12:38:52;5.87;;;0.87;;
64208;SDS011;50527;52.414;13.226;2023-06-01T12:41:17;4.63;;;1.02;;
64208;SDS011;50527;52.414;13.226;2023-06-01T12:43:44;3.22;;;1.00;;
64208;SDS011;50527;52.414;13.226;2023-06-01T12:46:17;5.68;;;0.90;;
64208;SDS011;50527;52.414;13.226;2023-06-01T12:48:44;5.82;;;1.00;;
64208;SDS011;50527;52.414;13.226;2023-06-01T12:51:10;3.88;;;0.95;;
64208;SDS011;50527;52.414;13.226;2023-06-01T12:53:36;5.45;;;0.90;;
64208;SDS011;50527;52.414;13.226;2023-06-01T12:56:01;3.75;;;1.02;;
64208;SDS011;50527;52.414;13.226;2023-06-01T12:58:28;5.63;;;1.20;;
64208;SDS011;50527;52.414;13.226;2023-06-01T13:00:53;6.22;;;1.25;;
64208;SDS011;50527;52.414;13.226;2023-06-01T13:03:19;5.50;;;1.20;;
64208;SDS011;50527;52.414;13.226;2023-06-01T13:05:46;5.82;;;1.80;;
64208;SDS011;50527;52.414;13.226;2023-06-01T13:08:14;10.68;;;1.92;;
64208;SDS011;50527;52.414;13.226;2023-06-01T13:10:43;4.47;;;1.63;;
64208;SDS011;50527;52.414;13.226;2023-06-01T13:13:08;8.35;;;1.58;;
64208;SDS011;50527;52.414;13.226;2023-06-01T13:15:35;5.75;;;1.77;;
64208;SDS011;50527;52.414;13.226;2023-06-01T13:18:05;9.18;;;2.42;;
64208;SDS011;50527;52.414;13.226;2023-06-01T13:20:31;7.03;;;2.00;;
64208;SDS011;50527;52.414;13.226;2023-06-01T13:22:56;6.45;;;1.70;;
64208;SDS011;50527;52.414;13.226;2023-06-01T13:25:22;8.35;;;2.25;;
64208;SDS011;50527;52.414;13.226;2023-06-01T13:27:48;7.78;;;1.83;;
64208;SDS011;50527;52.414;13.226;2023-06-01T13:30:14;7.78;;;2.03;;
64208;SDS011;50527;52.414;13.226;2023-06-01T13:32:39;6.85;;;1.75;;
64208;SDS011;50527;52.414;13.226;2023-06-01T13:35:05;8.98;;;2.88;;
64208;SDS011;50527;52.414;13.226;2023-06-01T13:37:31;9.57;;;3.97;;
64208;SDS011;50527;52.414;13.226;2023-06-01T13:39:56;9.50;;;2.92;;
64208;SDS011;50527;52.414;13.226;2023-06-01T13:42:22;7.53;;;2.33;;
64208;SDS011;50527;52.414;13.226;2023-06-01T13:44:48;5.10;;;1.67;;
64208;SDS011;50527;52.414;13.226;2023-06-01T13:47:13;5.30;;;1.48;;
64208;SDS011;50527;52.414;13.226;2023-06-01T13:49:44;4.20;;;1.30;;
64208;SDS011;50527;52.414;13.226;2023-06-01T13:52:10;5.03;;;1.20;;
64208;SDS011;50527;52.414;13.226;2023-06-01T13:54:36;3.25;;;0.70;;
64208;SDS011;50527;52.414;13.226;2023-06-01T13:57:02;4.03;;;0.75;;
64208;SDS011;50527;52.414;13.226;2023-06-01T13:59:28;3.95;;;0.85;;
64208;SDS011;50527;52.414;13.226;2023-06-01T14:01:55;6.13;;;0.80;;
64208;SDS011;50527;52.414;13.226;2023-06-01T14:04:24;4.13;;;0.77;;
64208;SDS011;50527;52.414;13.226;2023-06-01T14:06:49;3.20;;;0.88;;
64208;SDS011;50527;52.414;13.226;2023-06-01T14:09:18;3.28;;;1.00;;
64208;SDS011;50527;52.414;13.226;2023-06-01T14:11:43;2.85;;;0.60;;
64208;SDS011;50527;52.414;13.226;2023-06-01T14:14:09;6.53;;;1.00;;
64208;SDS011;50527;52.414;13.226;2023-06-01T14:16:35;4.70;;;1.20;;
64208;SDS011;50527;52.414;13.226;2023-06-01T14:19:01;2.85;;;1.35;;
64208;SDS011;50527;52.414;13.226;2023-06-01T14:21:28;6.65;;;1.02;;
64208;SDS011;50527;52.414;13.226;2023-06-01T14:23:55;3.85;;;1.00;;
64208;SDS011;50527;52.414;13.226;2023-06-01T14:26:21;4.10;;;0.90;;
64208;SDS011;50527;52.414;13.226;2023-06-01T14:28:46;3.42;;;0.90;;
64208;SDS011;50527;52.414;13.226;2023-06-01T14:31:13;3.70;;;0.80;;
64208;SDS011;50527;52.414;13.226;2023-06-01T14:33:39;2.97;;;0.75;;
64208;SDS011;50527;52.414;13.226;2023-06-01T14:36:04;2.13;;;0.52;;
64208;SDS011;50527;52.414;13.226;2023-06-01T14:38:30;5.28;;;1.02;;
64208;SDS011;50527;52.414;13.226;2023-06-01T14:40:56;3.47;;;0.90;;
64208;SDS011;50527;52.414;13.226;2023-06-01T14:43:21;6.78;;;0.88;;
64208;SDS011;50527;52.414;13.226;2023-06-01T14:45:47;2.20;;;0.63;;
64208;SDS011;50527;52.414;13.226;2023-06-01T14:48:13;2.65;;;0.70;;
64208;SDS011;50527;52.414;13.226;2023-06-01T14:50:38;7.07;;;1.00;;
64208;SDS011;50527;52.414;13.226;2023-06-01T14:53:04;4.10;;;1.10;;
64208;SDS011;50527;52.414;13.226;2023-06-01T14:55:29;6.45;;;0.95;;
64208;SDS011;50527;52.414;13.226;2023-06-01T14:57:55;3.35;;;0.80;;
64208;SDS011;50527;52.414;13.226;2023-06-01T15:00:21;2.15;;;0.68;;
64208;SDS011;50527;52.414;13.226;2023-06-01T15:02:46;4.13;;;1.00;;
64208;SDS011;50527;52.414;13.226;2023-06-01T15:05:12;3.70;;;0.90;;
64208;SDS011;50527;52.414;13.226;2023-06-01T15:07:37;5.35;;;0.90;;
64208;SDS011;50527;52.414;13.226;2023-06-01T15:10:03;5.65;;;1.00;;
64208;SDS011;50527;52.414;13.226;2023-06-01T15:12:29;8.63;;;1.10;;
64208;SDS011;50527;52.414;13.226;2023-06-01T15:14:55;5.63;;;1.08;;
64208;SDS011;50527;52.414;13.226;2023-06-01T15:17:20;9.35;;;1.40;;
64208;SDS011;50527;52.414;13.226;2023-06-01T15:19:46;2.58;;;0.88;;
64208;SDS011;50527;52.414;13.226;2023-06-01T15:22:12;4.22;;;0.70;;
64208;SDS011;50527;52.414;13.226;2023-06-01T15:24:38;4.90;;;0.80;;
64208;SDS011;50527;52.414;13.226;2023-06-01T15:27:05;5.60;;;1.02;;
64208;SDS011;50527;52.414;13.226;2023-06-01T15:29:31;3.67;;;1.00;;
64208;SDS011;50527;52.414;13.226;2023-06-01T15:31:57;2.08;;;0.63;;
64208;SDS011;50527;52.414;13.226;2023-06-01T15:34:22;6.68;;;1.25;;
64208;SDS011;50527;52.414;13.226;2023-06-01T15:36:48;4.90;;;0.80;;
64208;SDS011;50527;52.414;13.226;2023-06-01T15:39:13;4.68;;;0.80;;
64208;SDS011;50527;52.414;13.226;2023-06-01T15:41:40;4.38;;;0.93;;